createdAt,value
2018-01-22T00:01:31.276Z,61.60
2018-01-22T00:03:59.100Z,61.50
2018-01-22T00:06:26.946Z,61.10
2018-01-22T00:08:54.726Z,60.50
2018-01-22T00:11:22.541Z,60.00
2018-01-22T00:13:51.186Z,59.20
2018-01-22T00:16:19.058Z,59.20
2018-01-22T00:18:46.822Z,58.80
2018-01-22T00:21:15.359Z,58.80
2018-01-22T00:23:44.450Z,57.90
2018-01-22T00:26:13.069Z,57.40
2018-01-22T00:28:40.914Z,57.40
2018-01-22T00:31:08.686Z,56.90
2018-01-22T00:33:37.314Z,56.60
2018-01-22T00:36:05.146Z,56.90
2018-01-22T00:38:32.940Z,56.70
2018-01-22T00:41:00.731Z,56.10
2018-01-22T00:43:28.527Z,55.80
2018-01-22T00:45:56.307Z,55.80
2018-01-22T00:48:24.074Z,56.00
2018-01-22T00:50:51.952Z,55.50
2018-01-22T00:53:19.725Z,55.20
2018-01-22T00:55:47.543Z,54.70
2018-01-22T00:58:16.094Z,54.00
2018-01-22T01:00:43.880Z,53.90
2018-01-22T01:03:12.601Z,52.80
2018-01-22T01:05:40.399Z,52.80
2018-01-22T01:08:08.281Z,53.30
2018-01-22T01:10:37.622Z,51.90
2018-01-22T01:13:05.457Z,51.90
2018-01-22T01:15:33.294Z,51.60
2018-01-22T01:18:01.184Z,51.30
2018-01-22T01:20:29.723Z,50.60
2018-01-22T01:22:57.546Z,50.60
2018-01-22T01:25:25.414Z,52.80
2018-01-22T01:27:53.217Z,57.80
2018-01-22T01:30:21.101Z,58.90
2018-01-22T01:32:48.874Z,59.70
2018-01-22T01:35:16.630Z,59.60
2018-01-22T01:37:44.419Z,59.70
2018-01-22T01:40:12.262Z,59.60
2018-01-22T01:42:40.016Z,59.50
2018-01-22T01:45:07.790Z,59.40
2018-01-22T01:47:35.657Z,59.10
2018-01-22T01:50:03.512Z,58.80
2018-01-22T01:52:31.334Z,59.00
2018-01-22T01:54:59.862Z,59.50
2018-01-22T01:57:27.690Z,59.50
2018-01-22T01:59:55.449Z,59.60
2018-01-22T02:02:24.027Z,59.50
2018-01-22T02:04:52.614Z,59.90
2018-01-22T02:07:21.814Z,59.30
2018-01-22T02:09:50.348Z,59.20
2018-01-22T02:12:18.210Z,59.20
2018-01-22T02:14:45.982Z,59.30
2018-01-22T02:17:13.752Z,59.30
2018-01-22T02:19:41.625Z,59.20
2018-01-22T02:22:09.426Z,59.10
2018-01-22T02:24:37.190Z,58.80
2018-01-22T02:27:04.959Z,58.50
2018-01-22T02:29:32.771Z,58.00
2018-01-22T02:32:00.559Z,57.70
2018-01-22T02:34:29.196Z,57.20
2018-01-22T02:36:56.971Z,57.20
2018-01-22T02:39:24.809Z,56.80
2018-01-22T02:41:52.593Z,56.80
2018-01-22T02:44:20.366Z,56.60
2018-01-22T02:46:48.139Z,56.40
2018-01-22T02:49:15.921Z,56.30
2018-01-22T02:51:43.698Z,56.00
2018-01-22T02:54:12.291Z,56.10
2018-01-22T02:56:40.845Z,55.80
2018-01-22T02:59:08.628Z,55.80
2018-01-22T03:01:37.165Z,55.20
2018-01-22T03:04:05.054Z,55.20
2018-01-22T03:06:32.858Z,55.10
2018-01-22T03:09:00.649Z,55.10
2018-01-22T03:11:28.424Z,55.40
2018-01-22T03:13:56.211Z,55.10
2018-01-22T03:16:23.971Z,54.90
2018-01-22T03:18:51.731Z,54.70
2018-01-22T03:21:19.491Z,54.60
2018-01-22T03:23:47.282Z,54.60
2018-01-22T03:26:15.819Z,54.30
2018-01-22T03:28:43.610Z,54.40
2018-01-22T03:31:11.410Z,54.30
2018-01-22T03:33:39.190Z,54.40
2018-01-22T03:36:06.951Z,54.50
2018-01-22T03:38:34.790Z,54.50
2018-01-22T03:41:02.591Z,54.50
2018-01-22T03:43:30.368Z,54.50
2018-01-22T03:45:58.201Z,54.50
2018-01-22T03:48:25.987Z,54.60
2018-01-22T03:50:53.751Z,54.60
2018-01-22T03:53:21.531Z,54.60
2018-01-22T03:55:49.427Z,54.50
2018-01-22T03:58:17.213Z,54.40
2018-01-22T04:00:45.776Z,54.30
2018-01-22T04:03:13.560Z,54.30
2018-01-22T04:05:42.146Z,55.00
2018-01-22T04:08:10.717Z,54.70
2018-01-22T04:10:39.254Z,54.50
2018-01-22T04:13:07.021Z,54.40
2018-01-22T04:15:34.802Z,54.30
2018-01-22T04:18:02.588Z,54.60
2018-01-22T04:20:30.434Z,54.90
2018-01-22T04:22:58.234Z,55.40
2018-01-22T04:25:26.816Z,55.00
2018-01-22T04:27:55.345Z,54.70
2018-01-22T04:30:23.171Z,54.60
2018-01-22T04:32:51.009Z,54.30
2018-01-22T04:35:18.846Z,54.20
2018-01-22T04:37:46.662Z,54.00
2018-01-22T04:40:15.253Z,53.70
2018-01-22T04:42:43.051Z,53.70
2018-01-22T04:45:10.896Z,53.60
2018-01-22T04:47:38.731Z,53.70
2018-01-22T04:50:07.272Z,54.00
2018-01-22T04:52:35.032Z,54.10
2018-01-22T04:55:02.800Z,54.10
2018-01-22T04:57:30.605Z,54.00
2018-01-22T04:59:59.168Z,53.30
2018-01-22T05:02:26.975Z,53.30
2018-01-22T05:04:55.282Z,53.30
2018-01-22T05:07:23.054Z,53.20
2018-01-22T05:09:50.942Z,52.90
2018-01-22T05:12:19.690Z,52.90
2018-01-22T05:14:47.462Z,52.90
2018-01-22T05:17:15.386Z,53.10
2018-01-22T05:19:43.158Z,53.90
2018-01-22T05:22:11.739Z,53.00
2018-01-22T05:24:40.270Z,52.90
2018-01-22T05:27:08.101Z,52.80
2018-01-22T05:29:35.896Z,52.80
2018-01-22T05:32:03.745Z,52.50
2018-01-22T05:34:31.518Z,52.80
2018-01-22T05:36:59.366Z,52.90
2018-01-22T05:39:27.996Z,52.50
2018-01-22T05:41:55.750Z,52.50
2018-01-22T05:44:23.512Z,52.50
2018-01-22T05:46:51.306Z,52.60
2018-01-22T05:49:19.854Z,52.70
2018-01-22T05:51:48.456Z,52.40
2018-01-22T05:54:16.218Z,52.50
2018-01-22T05:56:44.067Z,52.50
2018-01-22T05:59:11.898Z,52.40
2018-01-22T06:01:40.670Z,52.50
2018-01-22T06:04:08.498Z,52.40
2018-01-22T06:06:36.343Z,52.50
2018-01-22T06:09:04.304Z,52.50
2018-01-22T06:11:46.882Z,52.60
2018-01-22T06:17:45.422Z,52.50
2018-01-22T06:20:14.311Z,52.40
2018-01-22T06:22:54.786Z,52.40
2018-01-22T06:25:22.663Z,52.30
2018-01-22T06:27:51.812Z,52.20
2018-01-22T06:30:33.751Z,52.30
2018-01-22T06:33:01.583Z,52.40
2018-01-22T06:35:30.979Z,52.70
2018-01-22T06:38:00.179Z,52.80
2018-01-22T06:40:28.092Z,52.80
2018-01-22T06:43:03.279Z,52.80
2018-01-22T06:45:31.114Z,52.80
2018-01-22T06:48:03.903Z,53.00
2018-01-22T06:51:07.337Z,53.20
2018-01-22T06:53:35.126Z,53.40
2018-01-22T06:56:10.071Z,53.60
2018-01-22T06:58:38.915Z,54.00
2018-01-22T07:01:08.059Z,54.20
2018-01-22T07:03:37.146Z,54.40
2018-01-22T07:06:06.267Z,54.40
2018-01-22T07:08:35.219Z,54.50
2018-01-22T07:11:04.497Z,54.60
2018-01-22T07:13:39.618Z,54.80
2018-01-22T07:16:52.046Z,54.80
2018-01-22T07:22:43.739Z,54.50
2018-01-22T07:25:12.751Z,54.40
2018-01-22T07:27:46.475Z,54.40
2018-01-22T07:30:31.192Z,54.20
2018-01-22T07:33:02.919Z,54.00
2018-01-22T07:35:36.795Z,53.70
2018-01-22T07:38:10.590Z,53.30
2018-01-22T07:43:44.646Z,52.90
2018-01-22T07:49:15.006Z,52.70
2018-01-22T07:51:44.295Z,52.70
2018-01-22T07:54:13.523Z,52.70
2018-01-22T07:56:49.044Z,52.70
2018-01-22T07:59:16.839Z,53.40
2018-01-22T08:02:20.351Z,52.70
2018-01-22T08:04:48.139Z,52.80
2018-01-22T08:07:17.236Z,52.80
2018-01-22T08:10:20.944Z,52.90
2018-01-22T08:12:49.170Z,53.00
2018-01-22T08:15:19.867Z,53.00
2018-01-22T08:18:17.673Z,53.10
2018-01-22T08:20:45.480Z,53.10
2018-01-22T08:23:14.631Z,53.00
2018-01-22T08:36:28.953Z,53.10
2018-01-22T08:38:56.739Z,52.60
2018-01-22T08:42:15.346Z,52.40
2018-01-22T08:44:52.291Z,52.40
2018-01-22T08:47:20.104Z,52.50
2018-01-22T08:49:47.884Z,52.10
2018-01-22T08:52:15.799Z,52.00
2018-01-22T08:54:43.614Z,51.90
2018-01-22T08:57:11.419Z,51.70
2018-01-22T08:59:39.256Z,51.60
2018-01-22T09:02:07.089Z,51.60
2018-01-22T09:04:34.881Z,51.00
2018-01-22T09:07:02.697Z,51.30
2018-01-22T09:09:30.571Z,50.40
2018-01-22T09:11:58.392Z,50.30
2018-01-22T09:14:26.178Z,50.90
2018-01-22T09:16:54.038Z,52.70
2018-01-22T09:19:22.608Z,51.10
2018-01-22T09:21:50.455Z,51.00
2018-01-22T09:24:18.291Z,51.10
2018-01-22T09:26:46.119Z,50.20
2018-01-22T09:29:13.978Z,52.50
2018-01-22T09:31:41.835Z,52.10
2018-01-22T09:34:09.702Z,52.70
2018-01-22T09:36:37.487Z,53.40
2018-01-22T09:39:05.353Z,53.20
2018-01-22T09:41:33.123Z,53.60
2018-01-22T09:44:01.766Z,53.80
2018-01-22T09:46:29.568Z,53.80
2018-01-22T09:48:58.222Z,54.50
2018-01-22T09:51:26.010Z,54.50
2018-01-22T09:53:53.831Z,54.30
2018-01-22T09:56:21.623Z,54.60
2018-01-22T09:58:49.424Z,54.60
2018-01-22T10:01:17.283Z,54.10
2018-01-22T10:03:45.122Z,54.20
2018-01-22T10:06:13.694Z,55.50
2018-01-22T10:08:41.544Z,54.90
2018-01-22T10:11:09.384Z,55.20
2018-01-22T10:13:37.236Z,55.80
2018-01-22T10:16:05.072Z,56.50
2018-01-22T10:18:33.647Z,56.60
2018-01-22T10:21:01.520Z,56.60
2018-01-22T10:23:29.361Z,58.10
2018-01-22T10:25:57.967Z,59.00
2018-01-22T10:28:25.742Z,59.00
2018-01-22T10:30:54.349Z,60.20
2018-01-22T10:33:22.144Z,60.20
2018-01-22T10:35:50.009Z,59.80
2018-01-22T10:38:17.879Z,60.10
2018-01-22T10:40:45.684Z,60.60
2018-01-22T10:43:14.227Z,61.70
2018-01-22T10:45:42.007Z,61.70
2018-01-22T10:48:09.907Z,62.10
2018-01-22T10:50:38.464Z,62.20
2018-01-22T10:53:06.270Z,62.20
2018-01-22T10:55:34.047Z,62.30
2018-01-22T10:58:01.878Z,62.20
2018-01-22T11:00:30.494Z,62.80
2018-01-22T11:02:59.060Z,63.40
2018-01-22T11:05:26.942Z,62.70
2018-01-22T11:07:54.727Z,62.90
2018-01-22T11:10:22.539Z,62.90
2018-01-22T11:12:51.166Z,63.30
2018-01-22T11:15:34.633Z,63.40
2018-01-22T11:18:02.479Z,63.50
2018-01-22T11:20:30.335Z,63.60
2018-01-22T11:22:58.114Z,64.10
2018-01-22T11:25:25.878Z,65.00
2018-01-22T11:27:53.662Z,64.80
2018-01-22T11:30:21.507Z,64.90
2018-01-22T11:32:49.329Z,65.30
2018-01-22T11:35:17.129Z,66.90
2018-01-22T11:37:44.922Z,66.60
2018-01-22T11:40:12.742Z,66.50
2018-01-22T11:42:40.623Z,66.70
2018-01-22T11:45:08.427Z,67.80
2018-01-22T11:47:36.249Z,67.50
2018-01-22T11:50:04.089Z,67.40
2018-01-22T11:52:31.902Z,66.90
2018-01-22T11:54:59.743Z,66.40
2018-01-22T11:57:27.531Z,65.40
2018-01-22T11:59:55.305Z,65.00
2018-01-22T12:02:23.104Z,63.90
2018-01-22T12:04:52.327Z,63.00
2018-01-22T12:07:20.235Z,62.90
2018-01-22T12:09:48.090Z,62.30
2018-01-22T12:12:15.883Z,61.80
2018-01-22T12:14:43.747Z,61.70
2018-01-22T12:17:12.375Z,61.30
2018-01-22T12:19:40.179Z,61.20
2018-01-22T12:22:07.959Z,61.60
2018-01-22T12:24:35.736Z,61.10
2018-01-22T12:27:04.295Z,61.20
2018-01-22T12:29:32.094Z,61.30
2018-01-22T12:32:00.696Z,61.50
2018-01-22T12:34:28.571Z,61.60
2018-01-22T12:36:56.387Z,61.90
2018-01-22T12:39:24.936Z,64.00
2018-01-22T12:41:52.738Z,64.10
2018-01-22T12:44:21.318Z,65.50
2018-01-22T12:46:49.139Z,65.40
2018-01-22T12:49:16.970Z,65.90
2018-01-22T12:51:47.586Z,66.60
2018-01-22T12:54:16.574Z,66.90
2018-01-22T12:56:45.462Z,67.20
2018-01-22T13:02:33.896Z,67.50
2018-01-22T13:05:02.491Z,66.90
2018-01-22T13:07:30.311Z,66.80
2018-01-22T13:09:58.115Z,66.10
2018-01-22T13:12:25.898Z,66.70
2018-01-22T13:14:53.797Z,67.70
2018-01-22T13:17:21.674Z,67.50
2018-01-22T13:19:49.514Z,67.60
2018-01-22T13:22:18.067Z,67.10
2018-01-22T13:24:45.872Z,67.10
2018-01-22T13:27:14.421Z,65.50
2018-01-22T13:29:42.231Z,65.70
2018-01-22T13:32:10.053Z,66.70
2018-01-22T13:34:38.893Z,66.90
2018-01-22T13:37:06.766Z,66.90
2018-01-22T13:39:34.751Z,67.50
2018-01-22T13:42:02.566Z,67.80
2018-01-22T13:44:31.167Z,68.80
2018-01-22T13:46:58.975Z,68.90
2018-01-22T13:49:26.780Z,69.00
2018-01-22T13:51:55.311Z,70.00
2018-01-22T13:54:23.116Z,70.00
2018-01-22T13:56:51.690Z,70.80
2018-01-22T13:59:19.591Z,70.80
2018-01-22T14:01:47.382Z,70.80
2018-01-22T14:04:15.160Z,71.10
2018-01-22T14:06:43.771Z,71.30
2018-01-22T14:09:12.354Z,71.70
2018-01-22T14:11:40.250Z,71.70
2018-01-22T14:14:08.105Z,71.70
2018-01-22T14:16:36.660Z,71.60
2018-01-22T14:19:04.484Z,71.50
2018-01-22T14:21:32.293Z,71.60
2018-01-22T14:24:00.146Z,71.80
2018-01-22T14:26:28.076Z,72.10
2018-01-22T14:28:55.870Z,72.60
2018-01-22T14:31:23.710Z,71.90
2018-01-22T14:33:51.496Z,72.10
2018-01-22T14:36:19.283Z,71.90
2018-01-22T14:38:47.069Z,71.60
2018-01-22T14:41:15.639Z,71.40
2018-01-22T14:43:44.091Z,71.40
2018-01-22T14:46:13.541Z,71.10
2018-01-22T14:48:43.474Z,70.00
2018-01-22T14:51:11.268Z,69.50
2018-01-22T14:53:39.066Z,69.30
2018-01-22T14:56:07.642Z,69.10
2018-01-22T14:58:35.480Z,68.40
2018-01-22T15:01:03.292Z,68.00
2018-01-22T15:03:31.902Z,67.60
2018-01-22T15:05:59.901Z,67.60
2018-01-22T15:08:27.763Z,67.50
2018-01-22T15:10:55.619Z,67.20
2018-01-22T15:13:23.407Z,66.70
2018-01-22T15:15:51.208Z,65.70
2018-01-22T15:18:24.530Z,63.00
2018-01-22T15:20:53.661Z,63.10
2018-01-22T15:23:21.643Z,63.00
2018-01-22T15:25:49.600Z,62.50
2018-01-22T15:28:17.464Z,62.90
2018-01-22T15:30:45.429Z,61.70
2018-01-22T15:33:13.287Z,61.70
2018-01-22T15:35:41.831Z,61.60
2018-01-22T15:38:10.464Z,61.60
2018-01-22T15:40:38.300Z,61.60
2018-01-22T15:43:06.094Z,62.40
2018-01-22T15:45:33.906Z,62.80
2018-01-22T15:48:02.484Z,63.60
2018-01-22T15:50:31.324Z,63.60
2018-01-22T15:52:59.201Z,63.60
2018-01-22T15:55:26.983Z,63.40
2018-01-22T15:57:54.983Z,63.80
2018-01-22T16:00:22.854Z,63.90
2018-01-22T16:02:50.678Z,63.70
2018-01-22T16:05:18.524Z,63.90
2018-01-22T16:07:46.368Z,64.10
2018-01-22T16:10:14.163Z,64.40
2018-01-22T16:12:42.551Z,64.50
2018-01-22T16:15:10.875Z,64.80
2018-01-22T16:17:38.711Z,65.00
2018-01-22T16:20:07.267Z,64.90
2018-01-22T16:22:35.047Z,64.90
2018-01-22T16:25:02.818Z,64.90
2018-01-22T16:27:30.619Z,64.60
2018-01-22T16:29:58.453Z,64.50
2018-01-22T16:32:26.486Z,65.40
2018-01-22T16:34:54.319Z,64.70
2018-01-22T16:37:22.447Z,64.30
2018-01-22T16:39:50.288Z,64.00
2018-01-22T16:42:18.080Z,63.70
2018-01-22T16:44:45.871Z,63.70
2018-01-22T16:47:20.049Z,63.50
2018-01-22T16:49:47.892Z,63.50
2018-01-22T16:52:15.827Z,63.50
2018-01-22T16:54:44.086Z,63.50
2018-01-22T16:57:12.736Z,63.20
2018-01-22T16:59:40.771Z,63.30
2018-01-22T17:02:08.707Z,63.00
2018-01-22T17:04:37.284Z,61.30
2018-01-22T17:07:05.948Z,61.30
2018-01-22T17:09:33.743Z,61.20
2018-01-22T17:12:02.304Z,61.40
2018-01-22T17:14:30.155Z,61.30
2018-01-22T17:16:57.923Z,61.50
2018-01-22T17:19:25.706Z,61.80
2018-01-22T17:21:53.511Z,62.40
2018-01-22T17:24:21.282Z,62.80
2018-01-22T17:26:49.280Z,63.10
2018-01-22T17:29:17.146Z,63.60
2018-01-22T17:31:44.980Z,64.00
2018-01-22T17:34:12.762Z,64.50
2018-01-22T17:36:40.598Z,64.60
2018-01-22T17:39:08.509Z,64.60
2018-01-22T17:41:36.377Z,64.60
2018-01-22T17:44:04.157Z,65.10
2018-01-22T17:46:31.955Z,64.60
2018-01-22T17:48:59.792Z,64.60
2018-01-22T17:51:27.608Z,64.60
2018-01-22T17:53:55.413Z,64.60
2018-01-22T17:56:24.063Z,64.60
2018-01-22T17:58:51.870Z,64.60
2018-01-22T18:01:19.691Z,64.60
2018-01-22T18:03:47.476Z,64.60
2018-01-22T18:06:15.277Z,64.80
2018-01-22T18:08:43.920Z,64.60
2018-01-22T18:11:11.745Z,64.60
2018-01-22T18:13:39.558Z,64.50
2018-01-22T18:16:07.429Z,64.50
2018-01-22T18:18:35.511Z,64.50
2018-01-22T18:21:03.344Z,64.50
2018-01-22T18:23:31.151Z,64.50
2018-01-22T18:25:58.957Z,64.50
2018-01-22T18:28:26.859Z,64.50
2018-01-22T18:30:54.671Z,64.60
2018-01-22T18:33:23.287Z,64.50
2018-01-22T18:35:51.150Z,64.50
2018-01-22T18:38:19.063Z,64.30
2018-01-22T18:40:46.840Z,64.30
2018-01-22T18:43:14.696Z,64.30
2018-01-22T18:45:43.293Z,64.00
2018-01-22T18:48:11.823Z,64.10
2018-01-22T18:50:39.615Z,64.10
2018-01-22T18:53:09.459Z,64.20
2018-01-22T18:55:38.067Z,64.30
2018-01-22T18:58:05.904Z,64.30
2018-01-22T19:00:34.636Z,63.90
2018-01-22T19:03:03.745Z,64.00
2018-01-22T19:05:31.584Z,63.90
2018-01-22T19:07:59.509Z,63.90
2018-01-22T19:10:28.089Z,63.90
2018-01-22T19:12:57.507Z,63.80
2018-01-22T19:15:26.282Z,64.50
2018-01-22T19:17:54.555Z,63.60
2018-01-22T19:20:24.228Z,63.60
2018-01-22T19:22:58.611Z,63.70
2018-01-22T19:25:26.428Z,63.50
2018-01-22T19:27:54.207Z,63.40
2018-01-22T19:30:22.037Z,63.10
2018-01-22T19:32:50.929Z,63.00
2018-01-22T19:35:18.760Z,63.00
2018-01-22T19:37:46.630Z,63.10
2018-01-22T19:40:14.490Z,62.80
2018-01-22T19:42:42.301Z,62.70
2018-01-22T19:45:10.169Z,62.90
2018-01-22T19:47:38.940Z,63.20
2018-01-22T19:50:06.731Z,63.60
2018-01-22T19:52:34.549Z,63.70
2018-01-22T19:55:02.373Z,63.50
2018-01-22T19:57:30.438Z,63.50
2018-01-22T19:59:58.386Z,63.70
2018-01-22T20:02:26.242Z,63.60
2018-01-22T20:04:54.139Z,63.70
2018-01-22T20:07:21.953Z,63.80
2018-01-22T20:09:49.827Z,64.50
2018-01-22T20:12:17.996Z,63.70
2018-01-22T20:14:45.843Z,63.40
2018-01-22T20:17:14.306Z,63.40
2018-01-22T20:19:44.808Z,63.40
2018-01-22T20:22:18.902Z,63.10
2018-01-22T20:24:46.683Z,62.80
2018-01-22T20:27:15.308Z,62.90
2018-01-22T20:29:43.199Z,63.10
2018-01-22T20:32:11.057Z,63.10
2018-01-22T20:34:38.880Z,62.80
2018-01-22T20:37:06.736Z,62.60
2018-01-22T20:39:35.509Z,62.50
2018-01-22T20:42:03.572Z,62.50
2018-01-22T20:44:31.390Z,62.50
2018-01-22T20:46:59.235Z,62.50
2018-01-22T20:49:27.046Z,62.70
2018-01-22T20:52:02.559Z,62.30
2018-01-22T20:54:30.391Z,62.40
2018-01-22T20:56:58.255Z,62.60
2018-01-22T20:59:26.245Z,63.30
2018-01-22T21:01:54.040Z,62.60
2018-01-22T21:04:22.817Z,62.90
2018-01-22T21:06:50.689Z,62.80
2018-01-22T21:09:18.728Z,62.80
2018-01-22T21:11:46.727Z,63.50
2018-01-22T21:14:15.427Z,62.80
2018-01-22T21:16:43.222Z,62.80
2018-01-22T21:19:12.057Z,62.80
2018-01-22T21:21:39.917Z,62.70
2018-01-22T21:24:07.741Z,62.70
2018-01-22T21:26:35.548Z,62.80
2018-01-22T21:29:03.362Z,62.90
2018-01-22T21:31:31.194Z,62.80
2018-01-22T21:34:01.174Z,63.00
2018-01-22T21:36:29.981Z,63.10
2018-01-22T21:38:58.030Z,63.10
2018-01-22T21:41:25.835Z,63.00
2018-01-22T21:43:54.614Z,63.20
2018-01-22T21:46:22.380Z,63.20
2018-01-22T21:48:50.939Z,63.10
2018-01-22T21:51:18.906Z,63.00
2018-01-22T21:53:46.840Z,63.20
2018-01-22T21:56:14.624Z,63.40
2018-01-22T21:58:42.438Z,63.40
2018-01-22T22:01:10.991Z,63.60
2018-01-22T22:03:38.866Z,63.60
2018-01-22T22:06:11.993Z,63.40
2018-01-22T22:08:39.903Z,63.40
2018-01-22T22:11:07.728Z,63.20
2018-01-22T22:13:36.234Z,63.30
2018-01-22T22:16:04.101Z,63.30
2018-01-22T22:18:31.960Z,63.30
2018-01-22T22:20:59.753Z,63.30
2018-01-22T22:23:27.586Z,63.50
2018-01-22T22:25:55.390Z,63.50
2018-01-22T22:28:23.274Z,63.50
2018-01-22T22:30:51.060Z,63.70
2018-01-22T22:33:18.891Z,63.90
2018-01-22T22:35:46.727Z,64.00
2018-01-22T22:38:14.523Z,63.80
2018-01-22T22:40:42.315Z,64.20
2018-01-22T22:43:10.161Z,64.10
2018-01-22T22:45:38.810Z,64.20
2018-01-22T22:48:06.607Z,64.10
2018-01-22T22:50:34.374Z,64.20
2018-01-22T22:53:02.178Z,64.30
2018-01-22T22:55:29.982Z,63.90
2018-01-22T22:57:57.808Z,64.00
2018-01-22T23:03:57.271Z,64.60
2018-01-22T23:06:25.125Z,64.80
2018-01-22T23:08:53.851Z,64.80
2018-01-22T23:11:22.449Z,65.00
2018-01-22T23:13:50.250Z,65.00
2018-01-22T23:16:18.075Z,64.80
2018-01-22T23:22:18.102Z,64.70
2018-01-22T23:28:18.972Z,64.60
2018-01-22T23:30:47.769Z,64.60
2018-01-22T23:33:15.617Z,64.50
2018-01-22T23:35:43.458Z,64.60
2018-01-22T23:38:11.284Z,64.70
2018-01-22T23:40:40.016Z,64.70
2018-01-22T23:43:09.215Z,64.50
